Time;durP1;ratioP1;P1;durP2;ratioP2;P2;SDS_P1;SDS_P2;PMS_P1;PMS_P2;Temp;Humidity;BMP_temperature;BMP_pressure;BME280_temperature;BME280_humidity;BME280_pressure;Samples;Min_cycle;Max_cycle;Signal;HPM_P1;HPM_P2
2023/01/15 00:02:33;;;;;;;0.30;0.30;;;;;;;;;;10266208;28;20043;-81
2023/01/15 00:07:38;;;;;;;0.15;0.15;;;;;;;;;;10243768;28;20142;-84
2023/01/15 00:12:42;;;;;;;0.20;0.20;;;;;;;;;;10256896;28;20712;-82
2023/01/15 00:29:55;;;;;;;0.47;0.25;;;;;;;;;;10294029;28;20057;-81
2023/01/15 00:34:59;;;;;;;1.08;0.20;;;;;;;;;;10300885;28;20046;-79
2023/01/15 00:40:05;;;;;;;0.20;0.20;;;;;;;;;;10300241;28;20061;-82
2023/01/15 00:45:10;;;;;;;0.20;0.20;;;;;;;;;;10293635;28;20089;-83
2023/01/15 00:50:15;;;;;;;0.20;0.20;;;;;;;;;;10301789;28;20052;-79
2023/01/15 00:55:22;;;;;;;0.40;0.40;;;;;;;;;;10300456;28;20038;-79
2023/01/15 01:00:25;;;;;;;;;;;;;;;;;;10303818;28;20036;-81
2023/01/15 01:05:28;;;;;;;0.32;0.30;;;;;;;;;;10298060;28;20040;-79
2023/01/15 01:10:33;;;;;;;1.17;0.50;;;;;;;;;;10297118;28;20044;-80
2023/01/15 01:15:37;;;;;;;2.35;0.43;;;;;;;;;;10292740;28;20154;-80
2023/01/15 01:20:41;;;;;;;0.15;0.15;;;;;;;;;;10297049;28;20490;-84
2023/01/15 01:25:46;;;;;;;0.20;0.20;;;;;;;;;;10293976;28;20038;-84
2023/01/15 01:30:50;;;;;;;0.20;0.20;;;;;;;;;;10303172;28;20705;-84
2023/01/15 01:35:53;;;;;;;0.73;0.28;;;;;;;;;;10315523;28;20042;-83
2023/01/15 01:40:58;;;;;;;0.35;0.35;;;;;;;;;;10304538;28;20674;-84
2023/01/15 01:46:02;;;;;;;1.05;0.60;;;;;;;;;;10302406;28;20054;-84
2023/01/15 01:51:06;;;;;;;0.40;0.40;;;;;;;;;;10301171;28;20046;-84
2023/01/15 01:56:11;;;;;;;0.22;0.22;;;;;;;;;;10297501;28;20729;-83
2023/01/15 02:01:15;;;;;;;0.20;0.20;;;;;;;;;;10299777;28;20458;-83
2023/01/15 02:06:18;;;;;;;0.55;0.40;;;;;;;;;;10291487;28;20250;-81
2023/01/15 02:11:24;;;;;;;0.30;0.30;;;;;;;;;;10280977;28;20031;-81
2023/01/15 02:16:34;;;;;;;1.00;0.20;;;;;;;;;;10315455;28;20041;-82
2023/01/15 02:21:47;;;;;;;0.20;0.20;;;;;;;;;;10290017;28;20125;-82
2023/01/15 02:27:10;;;;;;;0.25;0.20;;;;;;;;;;10286207;28;20046;-81
2023/01/15 02:32:18;;;;;;;0.20;0.20;;;;;;;;;;10280661;28;20464;-81
2023/01/15 02:37:26;;;;;;;0.20;0.20;;;;;;;;;;10285427;28;20744;-81
2023/01/15 02:42:33;;;;;;;0.30;0.30;;;;;;;;;;10301239;28;20122;-81
2023/01/15 02:47:42;;;;;;;0.25;0.25;;;;;;;;;;10285418;28;20042;-81
2023/01/15 02:52:49;;;;;;;0.57;0.30;;;;;;;;;;10281718;28;20103;-82
2023/01/15 02:58:00;;;;;;;0.30;0.30;;;;;;;;;;10286560;28;20090;-81
2023/01/15 03:03:13;;;;;;;0.20;0.20;;;;;;;;;;10281184;28;20093;-81
2023/01/15 03:08:16;;;;;;;0.40;0.30;;;;;;;;;;10311191;28;20038;-83
2023/01/15 03:13:29;;;;;;;0.20;0.20;;;;;;;;;;10292256;28;20038;-82
2023/01/15 03:18:38;;;;;;;0.20;0.20;;;;;;;;;;10281424;28;20077;-82
2023/01/15 03:23:49;;;;;;;0.40;0.30;;;;;;;;;;10280618;28;20046;-82
2023/01/15 03:28:54;;;;;;;0.20;0.20;;;;;;;;;;10279788;28;20379;-82
2023/01/15 03:33:58;;;;;;;;;;;;;;;;;;10294157;28;20050;-83
2023/01/15 03:39:03;;;;;;;0.20;0.20;;;;;;;;;;10297627;28;19972;-83
2023/01/15 03:44:31;;;;;;;0.90;0.20;;;;;;;;;;10293530;28;20046;-83
2023/01/15 03:49:47;;;;;;;0.20;0.20;;;;;;;;;;10283185;28;20050;-81
2023/01/15 03:55:11;;;;;;;0.20;0.20;;;;;;;;;;10294139;28;20042;-82
2023/01/15 04:00:22;;;;;;;1.95;0.45;;;;;;;;;;10274448;28;20097;-82
2023/01/15 04:05:30;;;;;;;0.50;0.40;;;;;;;;;;10280925;28;20054;-82
2023/01/15 04:10:33;;;;;;;0.30;0.30;;;;;;;;;;10297230;28;20146;-81
2023/01/15 04:15:40;;;;;;;0.20;0.20;;;;;;;;;;10281484;28;20045;-82
2023/01/15 04:20:44;;;;;;;0.80;0.30;;;;;;;;;;10279622;28;20106;-81
2023/01/15 04:25:48;;;;;;;1.80;0.60;;;;;;;;;;10278156;28;20405;-82
2023/01/15 04:30:56;;;;;;;0.73;0.55;;;;;;;;;;10296251;28;20276;-81
2023/01/15 04:36:00;;;;;;;0.65;0.40;;;;;;;;;;10278798;28;20052;-81
2023/01/15 04:46:26;;;;;;;0.43;0.40;;;;;;;;;;10281387;28;20058;-83
2023/01/15 04:51:30;;;;;;;0.30;0.30;;;;;;;;;;10279913;28;20129;-81
2023/01/15 04:56:37;;;;;;;0.50;0.38;;;;;;;;;;10279180;28;20309;-81
2023/01/15 05:01:42;;;;;;;0.30;0.30;;;;;;;;;;10298160;28;20512;-82
2023/01/15 05:07:01;;;;;;;0.25;0.25;;;;;;;;;;10285129;28;20042;-82
2023/01/15 05:12:06;;;;;;;1.27;0.40;;;;;;;;;;10295871;28;20042;-81
2023/01/15 05:17:10;;;;;;;2.00;0.60;;;;;;;;;;10312491;28;20054;-82
2023/01/15 05:22:14;;;;;;;1.08;0.60;;;;;;;;;;10296096;28;20050;-81
2023/01/15 05:27:17;;;;;;;0.43;0.38;;;;;;;;;;10313150;28;20535;-82
2023/01/15 05:32:22;;;;;;;0.65;0.63;;;;;;;;;;10309900;28;20118;-81
2023/01/15 05:37:25;;;;;;;0.60;0.50;;;;;;;;;;10292976;28;20055;-81
2023/01/15 05:42:29;;;;;;;0.57;0.57;;;;;;;;;;10289313;28;20077;-81
2023/01/15 05:47:34;;;;;;;0.47;0.47;;;;;;;;;;10287180;28;20053;-81
2023/01/15 05:52:37;;;;;;;1.07;0.40;;;;;;;;;;10286873;28;20053;-81
2023/01/15 05:57:41;;;;;;;0.40;0.30;;;;;;;;;;10287295;28;20785;-81
2023/01/15 06:02:49;;;;;;;5.40;0.50;;;;;;;;;;10287330;28;20110;-81
2023/01/15 06:07:52;;;;;;;0.20;0.20;;;;;;;;;;10287915;28;20043;-81
2023/01/15 06:12:55;;;;;;;0.20;0.20;;;;;;;;;;10287609;28;20050;-80
2023/01/15 06:18:00;;;;;;;0.80;0.30;;;;;;;;;;10312037;28;20068;-83
2023/01/15 06:23:03;;;;;;;0.20;0.20;;;;;;;;;;10311534;28;20045;-82
2023/01/15 06:28:08;;;;;;;0.57;0.30;;;;;;;;;;10301163;28;20042;-83
2023/01/15 06:33:12;;;;;;;0.20;0.20;;;;;;;;;;10293810;28;20409;-83
2023/01/15 06:38:16;;;;;;;0.47;0.30;;;;;;;;;;10291293;28;20064;-83
2023/01/15 06:48:42;;;;;;;0.22;0.22;;;;;;;;;;10303093;28;20160;-81
2023/01/15 06:53:45;;;;;;;0.68;0.30;;;;;;;;;;10287863;28;20042;-82
2023/01/15 06:58:49;;;;;;;1.45;0.20;;;;;;;;;;10290965;28;20049;-82
2023/01/15 07:03:53;;;;;;;0.20;0.20;;;;;;;;;;10305713;28;20133;-84
2023/01/15 07:08:57;;;;;;;0.43;0.30;;;;;;;;;;10304970;28;20513;-83
2023/01/15 07:14:05;;;;;;;0.20;0.20;;;;;;;;;;10286260;28;20050;-82
2023/01/15 07:19:10;;;;;;;0.30;0.30;;;;;;;;;;10286787;28;20050;-84
2023/01/15 07:24:14;;;;;;;0.20;0.20;;;;;;;;;;10288076;28;20052;-83
2023/01/15 07:29:17;;;;;;;0.30;0.30;;;;;;;;;;10288270;28;20042;-82
2023/01/15 07:34:23;;;;;;;0.30;0.30;;;;;;;;;;10286529;28;20072;-83
2023/01/15 07:39:27;;;;;;;0.20;0.20;;;;;;;;;;10288960;28;20073;-84
2023/01/15 07:49:54;;;;;;;0.40;0.32;;;;;;;;;;10286438;28;20438;-83
2023/01/15 07:54:57;;;;;;;0.20;0.20;;;;;;;;;;10284525;28;20049;-82
2023/01/15 08:00:01;;;;;;;0.30;0.30;;;;;;;;;;10286739;28;20042;-82
2023/01/15 08:05:15;;;;;;;0.30;0.30;;;;;;;;;;10298358;28;20053;-83
2023/01/15 08:10:19;;;;;;;0.43;0.28;;;;;;;;;;10303456;28;20046;-83
2023/01/15 08:15:22;;;;;;;0.52;0.30;;;;;;;;;;10301151;28;20306;-83
2023/01/15 08:20:27;;;;;;;0.40;0.30;;;;;;;;;;10283294;28;20054;-84
2023/01/15 08:25:31;;;;;;;1.48;0.20;;;;;;;;;;10301697;28;20045;-83
2023/01/15 08:30:34;;;;;;;1.02;0.30;;;;;;;;;;10285602;28;20077;-83
2023/01/15 08:35:39;;;;;;;0.70;0.40;;;;;;;;;;10280359;28;20046;-82
2023/01/15 08:46:00;;;;;;;0.77;0.50;;;;;;;;;;10265830;28;20139;-83
2023/01/15 08:51:07;;;;;;;0.68;0.38;;;;;;;;;;10269128;28;20069;-82
2023/01/15 08:56:12;;;;;;;;;;;;;;;;;;10273719;28;20054;-83
2023/01/15 09:01:15;;;;;;;0.85;0.60;;;;;;;;;;10275346;28;19929;-81
2023/01/15 09:06:20;;;;;;;0.85;0.73;;;;;;;;;;10277510;28;20046;-81
2023/01/15 09:11:23;;;;;;;0.45;0.40;;;;;;;;;;10297299;28;20529;-82
2023/01/15 09:16:29;;;;;;;0.50;0.40;;;;;;;;;;10282699;28;20049;-82
2023/01/15 09:21:39;;;;;;;0.35;0.32;;;;;;;;;;10299122;28;20051;-82
2023/01/15 09:26:45;;;;;;;1.58;0.50;;;;;;;;;;10303947;28;20121;-82
2023/01/15 09:31:50;;;;;;;0.20;0.20;;;;;;;;;;10287011;28;20050;-81
2023/01/15 09:36:58;;;;;;;1.75;0.40;;;;;;;;;;10300414;28;20070;-84
2023/01/15 09:42:14;;;;;;;0.70;0.43;;;;;;;;;;10308744;23;20578;-79
2023/01/15 09:47:20;;;;;;;;;;;;;;;;;;10309873;28;20403;-79
2023/01/15 09:52:35;;;;;;;1.45;0.38;;;;;;;;;;10295082;28;19987;-78
2023/01/15 09:57:40;;;;;;;0.40;0.40;;;;;;;;;;10312220;28;20764;-78
2023/01/15 10:02:46;;;;;;;2.45;0.70;;;;;;;;;;10307563;28;20050;-78
2023/01/15 10:07:58;;;;;;;2.38;0.60;;;;;;;;;;10292918;28;20112;-78
2023/01/15 10:13:08;;;;;;;1.75;0.75;;;;;;;;;;10306554;28;20050;-78
2023/01/15 10:18:16;;;;;;;1.33;0.60;;;;;;;;;;10301900;28;20073;-78
2023/01/15 10:23:39;;;;;;;1.80;0.55;;;;;;;;;;10304663;28;20473;-78
2023/01/15 10:28:55;;;;;;;2.42;0.95;;;;;;;;;;10305989;28;20123;-78
2023/01/15 10:34:16;;;;;;;2.17;0.90;;;;;;;;;;10306815;28;20511;-78
2023/01/15 10:39:28;;;;;;;2.63;1.25;;;;;;;;;;10282615;28;20049;-78
2023/01/15 10:44:43;;;;;;;3.60;1.90;;;;;;;;;;10305049;28;20046;-78
2023/01/15 10:49:48;;;;;;;3.40;1.03;;;;;;;;;;10305110;28;20062;-78
2023/01/15 10:55:06;;;;;;;4.68;1.83;;;;;;;;;;10291010;28;20096;-77
2023/01/15 11:00:14;;;;;;;2.83;1.23;;;;;;;;;;10290787;28;20124;-79
2023/01/15 11:05:20;;;;;;;3.35;0.95;;;;;;;;;;10304349;28;20042;-78
2023/01/15 11:10:24;;;;;;;5.20;1.47;;;;;;;;;;10304561;28;21074;-78
2023/01/15 11:20:52;;;;;;;4.95;1.02;;;;;;;;;;10289857;28;20034;-78
2023/01/15 11:25:59;;;;;;;3.03;0.95;;;;;;;;;;10293548;28;20501;-78
2023/01/15 11:31:03;;;;;;;4.50;0.85;;;;;;;;;;10275612;28;20050;-78
2023/01/15 11:36:18;;;;;;;4.57;0.93;;;;;;;;;;10300816;28;20484;-78
2023/01/15 11:50:42;;;;;;;4.47;1.10;;;;;;;;;;10302992;28;20130;-78
2023/01/15 11:52:20;;;;;;;2.28;0.70;;;;;;;;;;10297925;28;20533;-78
2023/01/15 11:57:28;;;;;;;1.48;0.52;;;;;;;;;;10303741;28;20090;-78
2023/01/15 12:02:38;;;;;;;6.05;2.05;;;;;;;;;;10302361;28;20572;-78
2023/01/15 12:07:41;;;;;;;1.73;0.90;;;;;;;;;;10303014;28;20050;-77
2023/01/15 12:12:59;;;;;;;6.60;2.28;;;;;;;;;;10301888;28;20053;-78
2023/01/15 12:18:27;;;;;;;3.30;1.30;;;;;;;;;;10286932;28;20063;-79
2023/01/15 12:23:53;;;;;;;2.53;1.00;;;;;;;;;;10266223;28;20137;-78
2023/01/15 12:29:06;;;;;;;1.60;0.90;;;;;;;;;;10263007;28;20513;-78
2023/01/15 12:34:17;;;;;;;1.05;0.60;;;;;;;;;;10256944;28;20070;-78
2023/01/15 12:39:26;;;;;;;2.75;0.60;;;;;;;;;;10262028;28;20047;-78
2023/01/15 12:50:03;;;;;;;2.03;0.75;;;;;;;;;;10263631;28;20049;-78
2023/01/15 12:55:13;;;;;;;2.70;0.60;;;;;;;;;;10247947;28;20453;-78
2023/01/15 13:00:23;;;;;;;4.32;1.20;;;;;;;;;;10259480;28;20043;-78
2023/01/15 13:05:30;;;;;;;1.80;0.80;;;;;;;;;;10260973;28;20608;-78
2023/01/15 13:10:35;;;;;;;3.30;1.02;;;;;;;;;;10260957;28;20035;-78
2023/01/15 13:15:46;;;;;;;1.73;0.90;;;;;;;;;;10245383;28;20033;-78
2023/01/15 13:20:51;;;;;;;3.33;1.05;;;;;;;;;;10259926;28;20133;-78
2023/01/15 13:26:13;;;;;;;3.83;1.00;;;;;;;;;;10247869;28;20047;-77
2023/01/15 13:31:50;;;;;;;4.63;0.80;;;;;;;;;;10263160;28;20044;-77
2023/01/15 13:36:59;;;;;;;3.70;0.93;;;;;;;;;;10270309;28;20034;-77
2023/01/15 13:47:28;;;;;;;3.70;1.35;;;;;;;;;;10264493;28;20031;-78
2023/01/15 13:52:34;;;;;;;2.80;1.00;;;;;;;;;;10269234;28;20126;-78
2023/01/15 13:57:40;;;;;;;2.97;1.00;;;;;;;;;;10268675;28;20039;-77
2023/01/15 14:02:53;;;;;;;3.30;0.98;;;;;;;;;;10266650;28;20089;-78
2023/01/15 14:07:57;;;;;;;3.10;0.80;;;;;;;;;;10265994;28;20494;-78
2023/01/15 14:13:30;;;;;;;4.57;1.30;;;;;;;;;;10266060;28;20042;-78
2023/01/15 14:19:01;;;;;;;2.95;0.85;;;;;;;;;;10270000;28;20043;-78
2023/01/15 14:24:42;;;;;;;1.75;0.80;;;;;;;;;;10248040;28;20752;-77
2023/01/15 14:30:12;;;;;;;3.53;1.15;;;;;;;;;;10254814;28;20066;-77
2023/01/15 14:35:21;;;;;;;1.80;0.80;;;;;;;;;;10288200;28;20041;-77
2023/01/15 14:40:29;;;;;;;3.72;1.52;;;;;;;;;;10294343;28;20085;-77
2023/01/15 14:45:35;;;;;;;3.65;1.00;;;;;;;;;;10265323;28;20446;-78
2023/01/15 14:50:42;;;;;;;3.75;1.08;;;;;;;;;;10265016;28;20126;-77
2023/01/15 14:55:49;;;;;;;8.68;3.25;;;;;;;;;;10266907;28;20043;-78
2023/01/15 15:00:53;;;;;;;2.45;0.90;;;;;;;;;;10277998;28;20041;-79
2023/01/15 15:05:59;;;;;;;4.70;1.23;;;;;;;;;;10281380;28;20042;-79
2023/01/15 15:12:17;;;;;;;2.63;0.85;;;;;;;;;;10280262;28;20557;-79
2023/01/15 15:16:31;;;;;;;2.85;1.00;;;;;;;;;;10271467;28;20069;-79
2023/01/15 15:21:39;;;;;;;3.90;0.82;;;;;;;;;;10265993;28;20092;-79
2023/01/15 15:26:43;;;;;;;2.42;1.20;;;;;;;;;;10282775;28;20070;-78
2023/01/15 15:31:52;;;;;;;2.40;0.98;;;;;;;;;;10281106;28;20097;-79
2023/01/15 15:36:59;;;;;;;5.57;3.08;;;;;;;;;;10278783;28;20410;-77
2023/01/15 15:53:05;;;;;;;1.63;0.80;;;;;;;;;;10283050;28;20066;-80
2023/01/15 15:58:16;;;;;;;1.02;0.45;;;;;;;;;;10280052;28;20681;-78
2023/01/15 16:03:21;;;;;;;0.57;0.55;;;;;;;;;;10282663;28;20046;-80
2023/01/15 16:08:29;;;;;;;1.90;0.87;;;;;;;;;;10282725;28;20494;-80
2023/01/15 16:13:36;;;;;;;2.55;0.85;;;;;;;;;;10268904;28;20050;-80
2023/01/15 16:18:43;;;;;;;1.40;1.00;;;;;;;;;;10251780;28;20053;-80
2023/01/15 16:23:57;;;;;;;2.90;0.80;;;;;;;;;;10268558;28;20047;-80
2023/01/15 16:29:03;;;;;;;1.77;0.80;;;;;;;;;;10267277;28;20053;-80
2023/01/15 16:34:07;;;;;;;0.68;0.50;;;;;;;;;;10260992;28;20043;-80
2023/01/15 16:39:22;;;;;;;1.45;0.60;;;;;;;;;;10248788;28;20221;-80
2023/01/15 16:44:35;;;;;;;0.95;0.73;;;;;;;;;;10268743;28;20058;-80
2023/01/15 16:49:38;;;;;;;1.42;1.00;;;;;;;;;;10268943;28;20608;-80
2023/01/15 16:54:47;;;;;;;1.00;0.70;;;;;;;;;;10267875;28;20053;-80
2023/01/15 17:00:04;;;;;;;2.60;1.90;;;;;;;;;;10267573;28;20680;-80
2023/01/15 17:05:25;;;;;;;2.25;1.30;;;;;;;;;;10268575;28;20580;-80
2023/01/15 17:10:30;;;;;;;2.25;0.80;;;;;;;;;;10276004;28;20047;-80
2023/01/15 17:15:41;;;;;;;7.00;4.93;;;;;;;;;;10283752;28;20050;-81
2023/01/15 17:20:45;;;;;;;2.72;1.58;;;;;;;;;;10275638;28;20039;-81
2023/01/15 17:25:53;;;;;;;2.58;0.90;;;;;;;;;;10275240;28;20042;-81
2023/01/15 17:31:03;;;;;;;0.85;0.80;;;;;;;;;;10256670;28;20082;-79
2023/01/15 17:36:09;;;;;;;2.35;0.90;;;;;;;;;;10269331;28;20249;-81
2023/01/15 17:41:16;;;;;;;2.10;0.80;;;;;;;;;;10276737;28;20719;-82
2023/01/15 17:46:19;;;;;;;;;;;;;;;;;;10288368;28;20043;-81
2023/01/15 17:51:23;;;;;;;2.58;1.20;;;;;;;;;;10298515;28;19929;-80
2023/01/15 18:07:10;;;;;;;0.65;0.50;;;;;;;;;;10269193;28;20043;-80
2023/01/15 18:12:24;;;;;;;2.10;0.75;;;;;;;;;;10273531;28;20073;-83
2023/01/15 18:18:02;;;;;;;6.47;2.17;;;;;;;;;;10274841;28;20039;-90
2023/01/15 18:23:06;;;;;;;3.83;1.45;;;;;;;;;;10375296;23;20081;-85
2023/01/15 18:28:11;;;;;;;6.95;2.17;;;;;;;;;;10284332;28;20055;-86
2023/01/15 18:33:15;;;;;;;2.65;1.00;;;;;;;;;;10343683;28;20070;-86
2023/01/15 18:38:18;;;;;;;3.72;1.60;;;;;;;;;;10333701;28;20053;-85
2023/01/15 18:48:48;;;;;;;1.83;1.02;;;;;;;;;;10309223;28;20091;-86
2023/01/15 18:53:51;;;;;;;2.47;1.35;;;;;;;;;;10334253;28;20050;-85
2023/01/15 18:58:56;;;;;;;1.88;0.75;;;;;;;;;;10326069;28;20042;-85
2023/01/15 19:04:00;;;;;;;2.75;0.65;;;;;;;;;;10279546;28;20584;-84
2023/01/15 19:09:04;;;;;;;2.72;0.80;;;;;;;;;;10331835;28;20042;-87
2023/01/15 19:19:30;;;;;;;1.45;0.90;;;;;;;;;;10320644;28;20038;-85
2023/01/15 19:24:34;;;;;;;1.55;0.77;;;;;;;;;;10318242;28;20501;-85
2023/01/15 19:29:39;;;;;;;1.33;0.70;;;;;;;;;;10300789;28;20050;-84
2023/01/15 19:34:42;;;;;;;3.28;1.10;;;;;;;;;;10309835;28;20042;-84
2023/01/15 19:39:45;;;;;;;2.05;1.15;;;;;;;;;;10328651;28;20124;-85
2023/01/15 19:50:19;;;;;;;2.20;0.88;;;;;;;;;;10262798;28;20051;-85
2023/01/15 19:55:24;;;;;;;2.15;0.80;;;;;;;;;;10304692;28;20042;-85
2023/01/15 20:00:30;;;;;;;4.35;1.63;;;;;;;;;;10310135;28;20136;-84
2023/01/15 20:05:34;;;;;;;8.43;3.22;;;;;;;;;;10309810;28;20069;-84
2023/01/15 20:10:39;;;;;;;7.05;2.63;;;;;;;;;;10309450;28;20046;-85
2023/01/15 20:15:45;;;;;;;3.33;1.50;;;;;;;;;;10309411;28;20133;-85
2023/01/15 20:20:48;;;;;;;1.80;0.70;;;;;;;;;;10326026;28;20053;-84
2023/01/15 20:25:53;;;;;;;6.47;0.90;;;;;;;;;;10309257;28;20049;-84
2023/01/15 20:30:58;;;;;;;0.82;0.50;;;;;;;;;;10308947;28;20077;-85
2023/01/15 20:36:03;;;;;;;0.70;0.60;;;;;;;;;;10332177;28;20072;-85
2023/01/15 20:46:29;;;;;;;0.80;0.40;;;;;;;;;;10309115;28;20049;-85
2023/01/15 20:51:33;;;;;;;2.22;0.70;;;;;;;;;;10326530;28;20478;-84
2023/01/15 20:56:36;;;;;;;1.45;0.80;;;;;;;;;;10307941;28;20130;-84
2023/01/15 21:01:41;;;;;;;2.08;0.60;;;;;;;;;;10308236;28;20054;-85
2023/01/15 21:06:45;;;;;;;1.33;0.70;;;;;;;;;;10308357;28;20101;-84
2023/01/15 21:11:48;;;;;;;1.83;0.90;;;;;;;;;;10326155;28;20133;-84
2023/01/15 21:16:53;;;;;;;1.48;0.95;;;;;;;;;;10307219;28;20041;-85
2023/01/15 21:21:56;;;;;;;5.82;1.85;;;;;;;;;;10309003;28;20068;-85
2023/01/15 21:27:00;;;;;;;6.05;1.67;;;;;;;;;;10337167;28;20133;-85
2023/01/15 21:32:05;;;;;;;3.63;1.00;;;;;;;;;;10331484;28;20038;-84
2023/01/15 21:37:08;;;;;;;3.13;1.20;;;;;;;;;;10309750;28;20129;-84
2023/01/15 21:47:40;;;;;;;9.27;4.32;;;;;;;;;;10327499;28;20042;-87
2023/01/15 21:52:43;;;;;;;6.95;3.47;;;;;;;;;;10335167;28;20042;-86
2023/01/15 21:57:47;;;;;;;3.88;1.80;;;;;;;;;;10334812;28;20624;-86
2023/01/15 22:02:54;;;;;;;5.85;3.15;;;;;;;;;;10317348;28;20682;-86
2023/01/15 22:07:58;;;;;;;2.83;1.67;;;;;;;;;;10305161;28;20461;-87
2023/01/15 22:13:01;;;;;;;2.47;1.35;;;;;;;;;;10276946;28;20047;-85
2023/01/15 22:18:06;;;;;;;1.45;0.90;;;;;;;;;;10313343;28;20038;-86
2023/01/15 22:23:10;;;;;;;2.55;0.98;;;;;;;;;;10315692;28;20054;-85
2023/01/15 22:28:13;;;;;;;1.55;0.65;;;;;;;;;;10315093;28;20103;-86
2023/01/15 22:33:18;;;;;;;0.88;0.50;;;;;;;;;;10315281;28;20046;-86
2023/01/15 22:38:22;;;;;;;2.25;0.70;;;;;;;;;;10332955;28;20042;-85
2023/01/15 22:43:25;;;;;;;1.25;0.70;;;;;;;;;;10331205;28;20054;-86
2023/01/15 22:48:30;;;;;;;1.88;0.60;;;;;;;;;;10315178;28;20052;-86
2023/01/15 22:53:34;;;;;;;1.75;0.70;;;;;;;;;;10326734;28;20053;-87
2023/01/15 22:58:41;;;;;;;2.83;0.60;;;;;;;;;;10317954;28;20796;-86
2023/01/15 23:03:46;;;;;;;1.65;0.65;;;;;;;;;;10309570;28;20066;-87
2023/01/15 23:08:54;;;;;;;0.75;0.40;;;;;;;;;;10273276;28;20065;-87
2023/01/15 23:13:58;;;;;;;1.83;0.70;;;;;;;;;;10273497;28;20054;-86
2023/01/15 23:19:02;;;;;;;0.32;0.30;;;;;;;;;;10290958;28;20058;-87
2023/01/15 23:24:06;;;;;;;1.02;0.60;;;;;;;;;;10289108;28;20047;-87
2023/01/15 23:29:10;;;;;;;0.50;0.50;;;;;;;;;;10290361;28;20109;-86
2023/01/15 23:34:15;;;;;;;1.15;0.70;;;;;;;;;;10299151;28;20053;-87
2023/01/15 23:39:18;;;;;;;1.77;0.50;;;;;;;;;;10317492;28;20062;-87
2023/01/15 23:49:44;;;;;;;1.38;0.40;;;;;;;;;;10316701;28;20584;-86
2023/01/15 23:54:48;;;;;;;3.38;0.60;;;;;;;;;;10335297;28;20525;-87
2023/01/15 23:59:51;;;;;;;1.40;0.47;;;;;;;;;;10317646;28;20046;-86
